Terminal Aerodrome Forecast
Issued by NWS

Current Version | Previous Version | Text Only | Print | Product List | Glossary On
Versions: 1 2 3 4 5 6 7 8 9 10 11 12 13 14 15 16 17 18 19
000 FTUS41 KBTV 171100 TAFMPV TAF KMPV 171133Z 1712/1812 00000KT P6SM SKC FM171400 14004KT P6SM SCT200 FM171800 17010G18KT P6SM SCT200=

USA.gov is the U.S. government's official web portal to all federal, state and local government web resources and services.